This is the latest recevied weather packets stored in our database for station/object SV4FHR-2. If no packets are shown the sender has not sent any weather packets the latest 10 day(s).
| Time | Temp. | Humidity | Pressure | Rain* | Wind** | Luminosity | Snow |
|---|---|---|---|---|---|---|---|
| 1777567226 | 12.78° C | 95% | 1012.9 hPa | 0 mm | - | - | - |
| 1777566927 | 12.78° C | 95% | 1012.9 hPa | 0 mm | - | - | - |
| 1777566626 | 13.33° C | 95% | 1012.8 hPa | 0 mm | - | - | - |
| 1777566326 | 13.33° C | 94% | 1012.5 hPa | 0 mm | - | - | - |
| 1777566026 | 13.33° C | 94% | 1012.6 hPa | 0 mm | - | - | - |
| 1777565726 | 13.89° C | 94% | 1012.6 hPa | 0 mm | - | - | - |
| 1777565426 | 14.44° C | 93% | 1012.5 hPa | 0 mm | - | - | - |
| 1777565126 | 14.44° C | 92% | 1012.8 hPa | 0 mm | - | - | - |
| 1777564826 | 15° C | 90% | 1012.5 hPa | 0 mm | - | - | - |
| 1777564526 | 15° C | 89% | 1012.3 hPa | 0 mm | - | - | - |
| 1777564225 | 13.33° C | 83% | 1013.3 hPa | 0 mm | - | - | - |
| 1777502081 | 13.33° C | 83% | 1013.6 hPa | 0 mm | - | - | - |
| 1777501781 | 13.33° C | 83% | 1013.4 hPa | 0 mm | - | - | - |
| 1777501481 | 13.89° C | 83% | 1013.5 hPa | 0 mm | - | - | - |
| 1777501181 | 13.89° C | 83% | 1013.5 hPa | 0 mm | - | - | - |
| 1777500881 | 13.89° C | 83% | 1013.4 hPa | 0 mm | - | - | - |
| 1777500581 | 13.89° C | 83% | 1013.4 hPa | 0 mm | - | - | - |
| 1777500281 | 13.89° C | 83% | 1013.5 hPa | 0 mm | - | - | - |
| 1777499980 | 13.89° C | 83% | 1013.3 hPa | 0 mm | - | - | - |
| 1777499680 | 13.89° C | 84% | 1013.5 hPa | 0 mm | - | - | - |
| 1777499380 | 13.89° C | 84% | 1013.6 hPa | 0 mm | - | - | - |
| 1777499080 | 13.89° C | 84% | 1013.6 hPa | 0 mm | - | - | - |
| 1777498780 | 13.89° C | 85% | 1013.5 hPa | 0 mm | - | - | - |
| 1777498480 | 13.89° C | 85% | 1013.8 hPa | 0 mm | - | - | - |
| 1777498181 | 13.33° C | 85% | 1013.4 hPa | 0 mm | - | - | - |
* Rain latest hour (hover to see other rain measurements)
** Current wind speed in m/s (hover to see current wind gust speed)